Time;durP1;ratioP1;P1;durP2;ratioP2;P2;SDS_P1;SDS_P2;PMS_P1;PMS_P2;Temp;Humidity;BMP_temperature;BMP_pressure;BME280_temperature;BME280_humidity;BME280_pressure;Samples;Min_cycle;Max_cycle;Signal;HPM_P1;HPM_P2
2022/04/01 00:00:30;;;;;;;14.27;12.73;;;7.40;94.90;;;;;;5113348;28;20466;-45
2022/04/01 00:03:29;;;;;;;13.17;11.13;;;7.40;94.80;;;;;;5118176;28;20702;-45
2022/04/01 00:06:19;;;;;;;13.90;11.90;;;7.40;94.90;;;;;;5113806;28;20438;-45
2022/04/01 00:08:55;;;;;;;12.40;10.53;;;7.40;94.90;;;;;;5117791;28;20427;-45
2022/04/01 00:11:21;;;;;;;13.60;11.50;;;7.40;94.90;;;;;;5118159;28;20428;-45
2022/04/01 00:13:47;;;;;;;13.90;12.50;;;7.40;94.90;;;;;;5117734;28;20425;-45
2022/04/01 00:16:21;;;;;;;13.47;12.03;;;7.40;94.90;;;;;;5116522;28;20438;-45
2022/04/01 00:19:12;;;;;;;12.90;11.57;;;7.40;95.00;;;;;;5116555;28;20281;-45
2022/04/01 00:21:56;;;;;;;13.70;12.03;;;7.40;94.90;;;;;;5116959;28;20547;-45
2022/04/01 00:24:40;;;;;;;14.13;12.33;;;7.40;95.00;;;;;;5115513;28;20521;-45
2022/04/01 00:27:30;;;;;;;13.73;12.33;;;7.40;95.00;;;;;;5117006;28;20584;-45
2022/04/01 00:30:18;;;;;;;13.43;11.00;;;7.40;95.00;;;;;;5116464;28;20500;-45
2022/04/01 00:33:16;;;;;;;13.77;11.50;;;7.40;95.10;;;;;;5115539;28;20475;-45
2022/04/01 00:36:03;;;;;;;14.43;12.93;;;7.40;95.10;;;;;;5117350;28;20432;-45
2022/04/01 00:38:29;;;;;;;13.60;12.20;;;7.40;95.10;;;;;;5116908;28;20515;-45
2022/04/01 00:40:57;;;;;;;13.90;12.50;;;7.40;95.10;;;;;;5117329;28;20409;-45
2022/04/01 00:43:32;;;;;;;14.57;12.10;;;7.40;95.10;;;;;;5116708;28;20528;-45
2022/04/01 00:46:18;;;;;;;15.37;13.77;;;7.40;95.10;;;;;;5117021;28;20416;-45
2022/04/01 00:49:07;;;;;;;16.90;13.00;;;7.40;95.10;;;;;;5117451;28;20702;-45
2022/04/01 00:51:55;;;;;;;16.57;14.57;;;7.40;95.20;;;;;;5116738;28;20466;-45
2022/04/01 00:54:38;;;;;;;15.93;13.07;;;7.30;95.20;;;;;;5117041;28;20513;-46
2022/04/01 00:57:33;;;;;;;17.80;15.90;;;7.30;95.30;;;;;;5116611;28;20512;-45
2022/04/01 01:00:25;;;;;;;20.77;16.27;;;7.30;95.40;;;;;;5102688;28;20499;-45
2022/04/01 01:03:20;;;;;;;21.37;18.40;;;7.30;95.50;;;;;;5116195;28;20422;-45
2022/04/01 01:06:20;;;;;;;21.27;18.73;;;7.30;95.70;;;;;;5113697;28;20478;-45
2022/04/01 01:09:02;;;;;;;26.10;22.57;;;7.30;95.80;;;;;;5115628;28;20422;-45
2022/04/01 01:11:53;;;;;;;29.27;22.47;;;7.20;95.80;;;;;;5116998;28;20406;-45
2022/04/01 01:14:41;;;;;;;25.20;22.10;;;7.20;96.00;;;;;;5115430;28;20766;-45
2022/04/01 01:17:49;;;;;;;28.13;23.50;;;7.10;96.00;;;;;;5115690;28;20437;-45
2022/04/01 01:20:30;;;;;;;29.53;24.70;;;7.10;96.20;;;;;;5114043;28;20469;-45
2022/04/01 01:23:32;;;;;;;29.00;25.73;;;7.10;96.20;;;;;;5115159;28;20406;-46
2022/04/01 01:26:15;;;;;;;35.33;26.93;;;7.00;96.30;;;;;;5110434;28;20429;-45
2022/04/01 01:28:41;;;;;;;27.93;24.07;;;7.00;96.40;;;;;;5115553;28;20422;-45
2022/04/01 01:31:07;;;;;;;33.43;27.43;;;7.00;96.40;;;;;;5114806;28;20433;-45
2022/04/01 01:33:49;;;;;;;34.23;28.77;;;7.00;96.40;;;;;;5114962;28;20241;-45
2022/04/01 01:36:16;;;;;;;33.20;28.70;;;7.00;96.40;;;;;;5116052;28;20418;-45
2022/04/01 01:38:42;;;;;;;34.83;28.30;;;7.00;96.30;;;;;;5114185;28;20986;-45
2022/04/01 01:41:08;;;;;;;33.57;28.70;;;7.00;96.30;;;;;;5116667;28;20743;-45
2022/04/01 01:43:49;;;;;;;35.50;28.10;;;7.00;96.30;;;;;;5119807;28;20199;-45
2022/04/01 01:46:15;;;;;;;38.80;31.30;;;7.00;96.60;;;;;;5120071;28;20505;-45
2022/04/01 01:48:41;;;;;;;36.07;29.03;;;7.00;96.30;;;;;;5120476;28;20413;-45
2022/04/01 01:56:40;;;;;;;35.93;30.13;;;6.90;96.30;;;;;;5119859;28;20420;-45
2022/04/01 01:59:11;;;;;;;36.70;30.40;;;6.90;96.30;;;;;;5120756;28;20457;-45
2022/04/01 02:01:43;;;;;;;32.90;27.30;;;6.90;96.40;;;;;;5119753;28;20823;-45
2022/04/01 02:04:11;;;;;;;34.03;27.40;;;6.80;96.40;;;;;;5117967;28;20418;-45
2022/04/01 02:06:43;;;;;;;32.07;28.27;;;6.80;96.50;;;;;;5119356;28;20540;-45
2022/04/01 02:09:43;;;;;;;36.23;29.33;;;6.80;96.40;;;;;;5120226;28;20421;-45
2022/04/01 02:12:35;;;;;;;34.83;28.87;;;6.70;96.50;;;;;;5119981;28;20758;-45
2022/04/01 02:15:25;;;;;;;34.17;27.70;;;6.70;96.50;;;;;;5119503;28;20696;-45
2022/04/01 02:18:18;;;;;;;31.77;26.87;;;6.70;96.60;;;;;;5119930;28;20447;-45
2022/04/01 02:21:10;;;;;;;35.03;29.47;;;6.70;96.60;;;;;;5116322;28;20467;-45
2022/04/01 02:23:52;;;;;;;36.80;29.50;;;6.70;96.60;;;;;;5118976;28;20788;-45
2022/04/01 02:26:44;;;;;;;36.20;29.47;;;6.70;96.60;;;;;;5120064;28;20437;-45
2022/04/01 02:29:35;;;;;;;35.60;29.30;;;6.70;96.60;;;;;;5119842;28;20425;-45
2022/04/01 02:32:26;;;;;;;33.90;28.60;;;6.70;96.60;;;;;;5119169;28;20417;-45
2022/04/01 02:34:52;;;;;;;34.43;28.53;;;6.80;96.60;;;;;;5117826;28;20852;-45
2022/04/01 02:37:21;;;;;;;35.27;31.40;;;6.80;96.60;;;;;;5118372;28;20493;-45
2022/04/01 02:39:48;;;;;;;35.67;29.43;;;6.80;96.60;;;;;;5118728;27;20232;-45
2022/04/01 02:42:17;;;;;;;32.00;26.40;;;6.80;96.60;;;;;;5118619;28;20424;-45
2022/04/01 02:45:13;;;;;;;33.77;28.27;;;6.80;96.60;;;;;;5119208;28;20667;-45
2022/04/01 02:48:05;;;;;;;34.67;28.00;;;6.70;96.50;;;;;;5118558;28;20432;-45
2022/04/01 02:51:07;;;;;;;33.30;28.10;;;6.70;96.50;;;;;;5117936;28;20418;-45
2022/04/01 02:53:44;;;;;;;33.23;26.57;;;6.70;96.60;;;;;;5094916;28;20434;-45
2022/04/01 02:56:10;;;;;;;33.70;26.47;;;6.70;96.60;;;;;;5113370;28;20537;-45
2022/04/01 02:58:36;;;;;;;32.40;26.27;;;6.70;96.70;;;;;;5119183;28;20453;-45
2022/04/01 03:01:03;;;;;;;31.10;25.60;;;6.70;96.70;;;;;;5118037;28;20828;-45
2022/04/01 03:03:50;;;;;;;36.23;28.90;;;6.70;96.70;;;;;;5117717;28;20417;-45
2022/04/01 03:06:57;;;;;;;31.07;24.93;;;6.60;96.60;;;;;;5116675;28;20418;-45
2022/04/01 03:09:44;;;;;;;30.07;24.37;;;6.60;96.60;;;;;;5110261;28;20457;-45
2022/04/01 03:12:31;;;;;;;30.67;24.30;;;6.60;96.60;;;;;;5116915;28;20425;-45
2022/04/01 03:15:16;;;;;;;32.30;25.80;;;6.60;96.60;;;;;;5116040;28;20514;-45
2022/04/01 03:18:05;;;;;;;28.77;22.97;;;6.60;96.60;;;;;;5116962;28;20824;-45
2022/04/01 03:20:54;;;;;;;29.57;25.27;;;6.60;96.60;;;;;;5115672;28;20528;-45
2022/04/01 03:23:48;;;;;;;29.50;23.00;;;6.50;96.50;;;;;;5115425;28;20411;-45
2022/04/01 03:26:33;;;;;;;27.37;21.80;;;6.40;96.40;;;;;;5113480;28;20437;-45
2022/04/01 03:29:28;;;;;;;25.20;21.37;;;6.40;96.40;;;;;;5116617;28;20512;-45
2022/04/01 03:32:21;;;;;;;23.83;20.17;;;6.40;96.30;;;;;;5117806;28;20526;-45
2022/04/01 03:35:14;;;;;;;23.90;20.50;;;6.40;96.30;;;;;;5117034;28;20426;-49
2022/04/01 03:38:01;;;;;;;22.40;19.43;;;6.40;96.30;;;;;;5117056;28;20820;-45
2022/04/01 03:40:54;;;;;;;22.80;19.80;;;6.30;96.20;;;;;;5116691;28;20576;-45
2022/04/01 03:43:40;;;;;;;22.40;19.03;;;6.30;96.10;;;;;;5116483;28;20869;-45
2022/04/01 03:46:36;;;;;;;21.50;18.83;;;6.30;96.10;;;;;;5115768;28;20759;-45
2022/04/01 03:49:25;;;;;;;21.30;17.93;;;6.20;96.10;;;;;;5113869;28;20414;-45
2022/04/01 03:52:25;;;;;;;22.33;18.50;;;6.20;96.10;;;;;;5113151;28;20433;-45
2022/04/01 03:55:09;;;;;;;21.67;17.67;;;6.20;96.00;;;;;;5104002;28;20553;-45
2022/04/01 03:58:13;;;;;;;19.10;16.17;;;6.20;95.90;;;;;;5112750;28;20836;-45
2022/04/01 04:00:42;;;;;;;20.50;17.33;;;6.20;95.90;;;;;;5114643;28;20461;-45
2022/04/01 04:03:39;;;;;;;18.00;15.57;;;6.20;95.90;;;;;;5114531;28;20706;-47
2022/04/01 04:06:32;;;;;;;16.10;14.13;;;6.20;95.90;;;;;;5094614;28;20802;-47
2022/04/01 04:09:21;;;;;;;17.80;15.90;;;6.10;95.70;;;;;;5094492;28;20431;-47
2022/04/01 04:12:01;;;;;;;17.10;14.30;;;6.10;95.60;;;;;;5092178;28;20437;-47
2022/04/01 04:14:55;;;;;;;16.03;13.87;;;6.10;95.50;;;;;;5093891;28;20892;-47
2022/04/01 04:17:49;;;;;;;18.23;14.33;;;6.10;95.50;;;;;;5092368;28;20454;-47
2022/04/01 04:20:39;;;;;;;16.30;14.23;;;6.10;95.40;;;;;;5093932;28;20727;-47
2022/04/01 04:23:35;;;;;;;17.03;14.37;;;6.10;95.20;;;;;;5092126;28;20705;-47
2022/04/01 04:26:31;;;;;;;16.30;13.50;;;6.10;95.20;;;;;;5094155;28;20484;-47
2022/04/01 04:29:15;;;;;;;15.00;13.10;;;6.10;95.20;;;;;;5092535;28;20435;-47
2022/04/01 04:32:05;;;;;;;15.70;12.70;;;6.10;95.20;;;;;;5091849;28;20500;-47
2022/04/01 04:34:50;;;;;;;14.97;13.43;;;6.10;95.20;;;;;;5102646;28;20425;-47
2022/04/01 04:37:44;;;;;;;15.67;13.03;;;6.10;95.20;;;;;;5112063;28;20571;-47
2022/04/01 04:40:34;;;;;;;16.13;13.70;;;6.10;95.20;;;;;;5111612;28;20896;-47
2022/04/01 04:43:25;;;;;;;17.90;14.50;;;6.10;95.10;;;;;;5113963;28;20432;-47
2022/04/01 04:46:15;;;;;;;17.07;14.83;;;6.10;95.10;;;;;;5115187;28;20433;-47
2022/04/01 04:49:04;;;;;;;18.17;15.27;;;6.00;95.00;;;;;;5112528;28;20464;-47
2022/04/01 04:51:38;;;;;;;18.30;14.50;;;6.00;95.10;;;;;;5113298;28;20434;-47
2022/04/01 04:54:07;;;;;;;18.40;15.67;;;6.00;95.00;;;;;;5109316;28;20739;-47
2022/04/01 04:56:33;;;;;;;17.13;14.57;;;6.00;95.10;;;;;;5098223;28;20438;-47
2022/04/01 04:59:00;;;;;;;15.43;13.70;;;5.90;95.00;;;;;;5091950;28;20497;-47
2022/04/01 05:01:55;;;;;;;18.37;16.40;;;5.90;95.10;;;;;;5098812;28;20943;-47
2022/04/01 05:04:51;;;;;;;16.20;14.43;;;5.90;95.10;;;;;;5096571;28;20453;-47
2022/04/01 05:07:43;;;;;;;16.13;13.50;;;5.90;95.00;;;;;;5104396;28;20478;-47
2022/04/01 05:10:31;;;;;;;16.60;13.93;;;5.90;94.90;;;;;;5112467;28;20453;-47
2022/04/01 05:13:37;;;;;;;15.53;13.80;;;5.90;94.90;;;;;;5111258;28;20500;-47
2022/04/01 05:16:28;;;;;;;16.63;14.47;;;5.90;94.90;;;;;;5112807;28;20475;-47
2022/04/01 05:19:26;;;;;;;15.73;14.00;;;5.90;94.80;;;;;;5114950;28;20474;-47
2022/04/01 05:22:06;;;;;;;16.17;14.43;;;5.80;94.70;;;;;;5116665;28;20498;-47
2022/04/01 05:24:59;;;;;;;19.20;16.07;;;5.80;94.80;;;;;;5114367;28;20441;-47
2022/04/01 05:27:58;;;;;;;17.50;15.33;;;5.80;94.80;;;;;;5113608;28;20451;-47
2022/04/01 05:30:30;;;;;;;20.63;16.77;;;5.70;94.80;;;;;;5116044;28;20464;-47
2022/04/01 05:33:18;;;;;;;20.27;16.00;;;5.70;94.80;;;;;;5115800;28;20432;-47
2022/04/01 05:35:53;;;;;;;22.03;17.60;;;5.70;94.80;;;;;;5098328;28;20406;-47
2022/04/01 05:38:22;;;;;;;18.90;16.03;;;5.70;94.80;;;;;;5097593;28;20429;-47
2022/04/01 05:40:52;;;;;;;20.80;17.60;;;5.70;94.80;;;;;;5089826;28;20458;-47
2022/04/01 05:43:27;;;;;;;19.13;17.03;;;5.70;94.80;;;;;;5088322;28;20559;-47
2022/04/01 05:46:23;;;;;;;17.73;15.80;;;5.70;94.80;;;;;;5089109;28;20665;-47
2022/04/01 05:49:24;;;;;;;19.40;17.40;;;5.60;94.70;;;;;;5088191;28;20462;-47
2022/04/01 05:52:13;;;;;;;18.70;16.30;;;5.60;94.70;;;;;;5088394;28;20475;-47
2022/04/01 05:54:52;;;;;;;19.73;16.67;;;5.60;94.70;;;;;;5090304;28;20854;-47
2022/04/01 05:57:45;;;;;;;19.83;17.73;;;5.60;94.60;;;;;;5086544;28;20502;-47
2022/04/01 06:00:55;;;;;;;19.27;16.53;;;5.60;94.60;;;;;;5085738;28;20443;-47
2022/04/01 06:03:38;;;;;;;21.00;17.80;;;5.60;94.50;;;;;;5086770;28;20529;-47
2022/04/01 06:06:33;;;;;;;19.57;17.40;;;5.60;94.50;;;;;;5086665;28;20662;-47
2022/04/01 06:09:40;;;;;;;19.10;16.37;;;5.60;94.50;;;;;;5086646;28;20470;-47
2022/04/01 06:12:32;;;;;;;19.20;17.10;;;5.60;94.50;;;;;;5085892;28;20652;-47
2022/04/01 06:15:20;;;;;;;20.67;18.47;;;5.60;94.50;;;;;;5091772;28;20476;-47
2022/04/01 06:18:05;;;;;;;18.00;16.07;;;5.70;94.50;;;;;;5088374;28;21054;-47
2022/04/01 06:20:49;;;;;;;18.47;15.93;;;5.70;94.30;;;;;;5091592;28;20696;-47
2022/04/01 06:23:51;;;;;;;18.03;16.17;;;5.70;94.20;;;;;;5089948;28;20786;-49
2022/04/01 06:26:18;;;;;;;19.33;17.33;;;5.70;94.20;;;;;;5070471;28;20411;-47
2022/04/01 06:29:26;;;;;;;21.37;17.80;;;5.70;94.20;;;;;;5090295;28;20486;-47
2022/04/01 06:32:27;;;;;;;17.97;16.10;;;5.60;94.20;;;;;;5091724;28;20428;-47
2022/04/01 06:35:31;;;;;;;19.50;17.30;;;5.70;94.20;;;;;;5092868;28;20417;-47
2022/04/01 06:38:02;;;;;;;19.30;17.23;;;5.70;94.20;;;;;;5093477;28;20410;-47
2022/04/01 06:40:58;;;;;;;19.67;17.20;;;5.70;94.10;;;;;;5091265;28;20466;-47
2022/04/01 06:43:48;;;;;;;17.87;15.97;;;5.70;94.00;;;;;;5090092;28;20829;-47
2022/04/01 06:46:40;;;;;;;18.17;16.37;;;5.70;93.90;;;;;;5090421;28;20729;-47
2022/04/01 06:49:33;;;;;;;17.43;15.60;;;5.70;93.80;;;;;;5081105;28;20561;-47
2022/04/01 06:52:16;;;;;;;17.60;15.70;;;5.80;93.80;;;;;;5089400;28;20509;-47
2022/04/01 06:55:20;;;;;;;17.93;16.03;;;5.80;93.80;;;;;;5090774;28;20479;-47
2022/04/01 06:58:09;;;;;;;18.97;16.03;;;5.80;93.80;;;;;;5046847;28;20551;-47
2022/04/01 07:00:43;;;;;;;16.40;14.67;;;5.80;93.80;;;;;;5086856;28;20407;-47
2022/04/01 07:03:42;;;;;;;18.53;16.57;;;5.80;93.80;;;;;;5089526;28;20445;-47
2022/04/01 07:06:48;;;;;;;16.57;14.87;;;5.80;93.70;;;;;;5050451;28;20497;-47
2022/04/01 07:09:41;;;;;;;16.50;14.70;;;5.90;93.70;;;;;;5083834;28;20625;-47
2022/04/01 07:12:25;;;;;;;16.20;14.50;;;6.00;93.70;;;;;;5088931;28;20706;-47
2022/04/01 07:15:10;;;;;;;16.90;15.20;;;6.00;93.60;;;;;;5089915;28;20411;-47
2022/04/01 07:18:10;;;;;;;17.63;15.83;;;6.10;93.60;;;;;;5087580;28;20427;-47
2022/04/01 07:20:55;;;;;;;18.53;16.70;;;6.20;93.50;;;;;;5091337;28;20407;-47
2022/04/01 07:23:45;;;;;;;18.90;16.57;;;6.20;93.40;;;;;;5090325;28;20426;-47
2022/04/01 07:26:34;;;;;;;17.23;15.53;;;6.30;93.30;;;;;;5092407;28;20463;-47
2022/04/01 07:29:24;;;;;;;18.23;16.43;;;6.40;93.30;;;;;;5087964;28;20713;-47
2022/04/01 07:32:32;;;;;;;18.43;16.63;;;6.40;93.20;;;;;;5090116;28;20411;-47
2022/04/01 07:35:13;;;;;;;17.50;15.80;;;6.40;93.10;;;;;;5086879;28;20759;-47
2022/04/01 07:38:06;;;;;;;17.30;15.23;;;6.40;93.00;;;;;;5089045;28;20413;-47
2022/04/01 07:40:53;;;;;;;16.60;14.90;;;6.30;93.10;;;;;;5086507;28;20478;-47
2022/04/01 07:43:45;;;;;;;18.63;16.73;;;6.30;93.20;;;;;;5088840;28;20461;-47
2022/04/01 07:46:45;;;;;;;17.33;15.50;;;6.40;93.30;;;;;;5084505;28;20864;-47
2022/04/01 07:49:15;;;;;;;18.93;17.03;;;6.40;93.20;;;;;;5090781;28;20481;-47
2022/04/01 07:52:23;;;;;;;19.37;16.73;;;6.40;93.20;;;;;;5091276;28;20515;-47
2022/04/01 07:55:04;;;;;;;17.97;16.07;;;6.40;93.20;;;;;;5090760;28;20399;-47
2022/04/01 07:57:56;;;;;;;18.43;16.47;;;6.30;93.10;;;;;;5089574;28;20441;-47
2022/04/01 08:00:38;;;;;;;19.07;17.00;;;6.30;93.20;;;;;;5091232;28;20501;-47
2022/04/01 08:03:34;;;;;;;19.27;16.80;;;6.30;93.20;;;;;;5089301;28;20657;-47
2022/04/01 08:06:23;;;;;;;17.70;15.80;;;6.20;93.20;;;;;;5086527;28;20422;-47
2022/04/01 08:08:49;;;;;;;17.83;16.00;;;6.20;93.20;;;;;;5087814;28;20915;-47
2022/04/01 08:11:14;;;;;;;20.03;17.93;;;6.20;93.20;;;;;;5087935;28;20430;-47
2022/04/01 08:13:45;;;;;;;20.80;18.60;;;6.20;93.30;;;;;;5086264;28;20195;-46
2022/04/01 08:16:38;;;;;;;20.27;18.10;;;6.20;93.20;;;;;;5087663;28;20184;-47
2022/04/01 08:19:26;;;;;;;20.37;18.33;;;6.20;93.20;;;;;;5086825;28;20468;-47
2022/04/01 08:22:11;;;;;;;21.93;19.03;;;6.30;93.20;;;;;;5087925;28;20699;-47
2022/04/01 08:24:54;;;;;;;20.27;18.07;;;6.30;93.20;;;;;;5088591;28;20442;-47
2022/04/01 08:27:50;;;;;;;21.87;18.63;;;6.30;93.00;;;;;;5090916;28;20415;-47
2022/04/01 08:30:34;;;;;;;21.00;18.80;;;6.40;92.90;;;;;;5083200;28;20614;-47
2022/04/01 08:33:20;;;;;;;19.10;17.10;;;6.40;92.80;;;;;;5091526;28;20565;-47
2022/04/01 08:36:10;;;;;;;19.17;17.17;;;6.40;92.80;;;;;;5089134;28;20533;-47
2022/04/01 08:38:36;;;;;;;20.10;18.00;;;6.40;92.80;;;;;;5090685;28;20434;-47
2022/04/01 08:41:02;;;;;;;18.40;16.50;;;6.40;92.80;;;;;;5089128;28;20815;-47
2022/04/01 08:43:33;;;;;;;19.13;16.87;;;6.40;92.80;;;;;;5091417;28;20183;-47
2022/04/01 08:46:17;;;;;;;18.23;16.43;;;6.40;92.80;;;;;;5100190;28;20498;-47
2022/04/01 08:49:06;;;;;;;18.57;16.67;;;6.40;92.80;;;;;;5088433;28;20423;-47
2022/04/01 08:52:02;;;;;;;18.27;16.37;;;6.40;92.70;;;;;;5089863;28;20807;-47
2022/04/01 08:54:50;;;;;;;15.33;13.77;;;6.40;92.60;;;;;;5088875;28;20437;-47
2022/04/01 08:57:40;;;;;;;16.90;15.10;;;6.50;92.90;;;;;;5088680;28;20768;-47
2022/04/01 09:00:39;;;;;;;16.87;15.13;;;6.50;92.50;;;;;;5089802;28;20863;-47
2022/04/01 09:03:34;;;;;;;16.47;14.77;;;6.40;92.50;;;;;;5090330;28;20407;-47
2022/04/01 09:06:35;;;;;;;17.13;15.37;;;6.40;92.50;;;;;;5089836;28;20437;-47
2022/04/01 09:09:25;;;;;;;16.37;14.77;;;6.30;92.40;;;;;;5089764;28;20875;-47
2022/04/01 09:12:32;;;;;;;16.40;13.43;;;6.30;92.40;;;;;;5089582;28;20433;-47
2022/04/01 09:15:14;;;;;;;15.27;13.77;;;6.30;92.40;;;;;;5005931;28;20881;-47
2022/04/01 09:18:00;;;;;;;15.27;13.70;;;6.30;92.50;;;;;;5006468;28;20488;-47
2022/04/01 09:21:02;;;;;;;14.73;13.33;;;6.30;92.60;;;;;;5065816;28;20720;-47
2022/04/01 09:23:48;;;;;;;15.40;13.87;;;6.30;92.60;;;;;;5088274;28;20402;-47
2022/04/01 09:26:42;;;;;;;15.07;13.37;;;6.30;92.60;;;;;;5085809;28;20482;-47
2022/04/01 09:29:40;;;;;;;13.90;12.37;;;6.30;92.60;;;;;;5086343;28;20867;-47
2022/04/01 09:32:42;;;;;;;15.10;13.50;;;6.30;92.60;;;;;;5086965;28;20429;-47
2022/04/01 09:35:33;;;;;;;14.83;13.33;;;6.40;92.50;;;;;;5086111;28;20421;-47
2022/04/01 09:38:29;;;;;;;14.07;12.57;;;6.40;92.40;;;;;;5087206;28;20861;-47
2022/04/01 09:41:31;;;;;;;14.70;13.20;;;6.50;92.30;;;;;;5084342;28;20489;-47
2022/04/01 09:44:12;;;;;;;14.93;13.33;;;6.50;92.20;;;;;;5072652;28;20702;-47
2022/04/01 09:47:04;;;;;;;15.53;13.93;;;6.60;92.10;;;;;;5087186;28;20568;-47
2022/04/01 09:49:52;;;;;;;15.40;13.90;;;6.70;92.10;;;;;;5084140;28;20499;-47
2022/04/01 09:52:51;;;;;;;13.87;12.43;;;6.80;92.00;;;;;;5085356;28;20403;-47
2022/04/01 09:55:38;;;;;;;14.47;13.07;;;6.90;91.80;;;;;;5086650;28;20467;-47
2022/04/01 09:58:34;;;;;;;14.80;13.40;;;7.00;91.70;;;;;;5080412;28;20794;-47
2022/04/01 10:01:24;;;;;;;15.03;13.50;;;7.10;91.60;;;;;;5086625;28;20692;-47
2022/04/01 10:03:50;;;;;;;17.13;14.13;;;7.20;91.40;;;;;;5087582;28;20680;-47
2022/04/01 10:06:17;;;;;;;15.80;14.20;;;7.20;91.20;;;;;;5091863;28;20514;-47
2022/04/01 10:08:46;;;;;;;14.53;13.13;;;7.30;91.10;;;;;;5092362;28;20515;-47
2022/04/01 10:11:31;;;;;;;15.20;13.70;;;7.40;91.10;;;;;;5091179;28;20427;-47
2022/04/01 10:14:28;;;;;;;13.83;12.50;;;7.40;90.90;;;;;;5090015;28;20422;-47
2022/04/01 10:17:15;;;;;;;14.17;12.80;;;7.40;90.70;;;;;;5091472;28;20399;-47
2022/04/01 10:20:02;;;;;;;12.63;11.43;;;7.40;90.60;;;;;;5089560;28;20439;-47
2022/04/01 10:23:06;;;;;;;14.07;12.77;;;7.40;90.50;;;;;;5087759;28;20399;-47
2022/04/01 10:25:59;;;;;;;13.80;12.30;;;7.50;90.50;;;;;;5078530;28;20461;-47
2022/04/01 10:28:39;;;;;;;12.50;11.20;;;7.50;90.30;;;;;;5091613;28;20433;-47
2022/04/01 10:31:25;;;;;;;12.03;10.83;;;7.40;90.20;;;;;;5091275;28;20699;-47
2022/04/01 10:34:16;;;;;;;13.60;12.20;;;7.50;90.10;;;;;;5091666;28;20419;-46
2022/04/01 10:37:17;;;;;;;12.33;11.10;;;7.50;90.10;;;;;;5093083;28;20452;-46
2022/04/01 10:40:15;;;;;;;11.70;10.47;;;7.50;90.20;;;;;;5093924;28;20925;-46
2022/04/01 10:42:47;;;;;;;12.30;11.20;;;7.50;90.10;;;;;;5092508;28;20438;-46
2022/04/01 10:45:37;;;;;;;11.03;9.93;;;7.50;90.10;;;;;;5091319;28;20433;-46
2022/04/01 10:54:26;;;;;;;9.13;8.33;;;7.40;90.00;;;;;;5090000;28;20464;-47
2022/04/01 10:57:05;;;;;;;9.80;8.87;;;7.40;90.10;;;;;;5075389;28;20717;-47
2022/04/01 10:59:50;;;;;;;8.73;7.90;;;7.40;90.10;;;;;;5092447;28;20433;-47
2022/04/01 11:02:38;;;;;;;8.00;7.30;;;7.40;90.20;;;;;;5090417;28;20637;-46
2022/04/01 11:05:31;;;;;;;8.70;7.90;;;7.40;90.10;;;;;;5089622;28;20415;-47
2022/04/01 11:08:24;;;;;;;9.80;8.90;;;7.40;90.10;;;;;;5090682;28;20689;-47
2022/04/01 11:11:16;;;;;;;8.97;8.07;;;7.50;90.10;;;;;;5087552;28;20478;-47
2022/04/01 11:14:14;;;;;;;9.60;8.53;;;7.50;90.00;;;;;;5079144;28;20431;-47
2022/04/01 11:17:11;;;;;;;9.20;8.30;;;7.50;90.00;;;;;;5089947;28;20817;-47
2022/04/01 11:20:13;;;;;;;9.87;8.40;;;7.50;90.00;;;;;;5089689;28;20805;-47
2022/04/01 11:23:01;;;;;;;9.53;8.60;;;7.50;90.30;;;;;;5090600;28;20754;-47
2022/04/01 11:25:58;;;;;;;9.80;8.10;;;7.60;90.00;;;;;;5092547;28;20425;-47
2022/04/01 11:28:57;;;;;;;11.47;8.80;;;7.60;89.90;;;;;;5090674;28;20892;-47
2022/04/01 11:34:31;;;;;;;7.97;7.17;;;7.60;89.60;;;;;;5089538;28;20751;-47
2022/04/01 11:37:06;;;;;;;7.90;7.10;;;7.70;89.80;;;;;;5089768;28;20419;-47
2022/04/01 11:39:31;;;;;;;8.10;7.30;;;7.60;89.50;;;;;;5089665;28;20670;-47
2022/04/01 11:42:24;;;;;;;9.40;8.60;;;7.60;89.30;;;;;;5090210;28;20552;-47
2022/04/01 11:45:15;;;;;;;7.70;7.00;;;7.60;89.40;;;;;;5088737;28;20675;-46
2022/04/01 11:48:17;;;;;;;7.37;6.67;;;7.60;89.30;;;;;;5090083;28;20411;-47
2022/04/01 11:51:04;;;;;;;6.80;6.20;;;7.50;89.10;;;;;;5085608;28;20667;-47
2022/04/01 11:53:57;;;;;;;6.63;5.93;;;7.40;89.30;;;;;;5089107;28;20417;-47
2022/04/01 11:56:43;;;;;;;7.33;6.63;;;7.30;89.60;;;;;;5087916;28;20429;-47
2022/04/01 11:59:48;;;;;;;5.90;5.40;;;7.20;89.80;;;;;;5087962;28;20419;-47
2022/04/01 12:02:26;;;;;;;6.53;5.93;;;7.20;90.10;;;;;;5005780;28;20713;-47
2022/04/01 12:05:15;;;;;;;7.50;6.80;;;7.20;90.20;;;;;;5080438;28;20533;-47
2022/04/01 12:11:09;;;;;;;8.53;7.70;;;7.20;90.40;;;;;;5087102;28;20931;-47
2022/04/01 12:13:49;;;;;;;7.23;6.53;;;7.10;90.30;;;;;;5090114;28;20477;-47
2022/04/01 12:16:46;;;;;;;6.77;6.17;;;7.00;90.20;;;;;;5090336;28;20419;-47
2022/04/01 12:19:33;;;;;;;6.50;6.00;;;7.00;90.20;;;;;;5087481;28;20525;-47
2022/04/01 12:22:38;;;;;;;6.30;5.70;;;6.90;90.30;;;;;;5087808;28;20494;-46
2022/04/01 12:25:10;;;;;;;6.03;5.53;;;6.80;90.30;;;;;;5090137;28;20446;-47
2022/04/01 12:28:03;;;;;;;5.77;5.00;;;6.80;90.30;;;;;;5090933;28;20434;-47
2022/04/01 12:30:55;;;;;;;5.40;5.00;;;6.70;90.30;;;;;;5088703;28;20685;-47
2022/04/01 12:33:34;;;;;;;4.17;3.80;;;6.70;90.40;;;;;;5089652;28;20419;-47
2022/04/01 12:36:34;;;;;;;3.20;2.90;;;6.70;90.30;;;;;;5087852;28;20445;-47
2022/04/01 12:39:19;;;;;;;3.27;2.97;;;6.80;90.40;;;;;;5078598;27;20683;-47
2022/04/01 12:42:21;;;;;;;4.53;3.40;;;6.90;90.30;;;;;;5114891;27;20422;-47
2022/04/01 12:44:56;;;;;;;3.47;3.20;;;7.00;90.10;;;;;;5025182;28;20421;-47
2022/04/01 12:47:37;;;;;;;3.80;3.50;;;7.00;89.60;;;;;;5099594;28;20437;-47
2022/04/01 12:50:35;;;;;;;3.40;3.10;;;7.10;89.10;;;;;;5109119;28;20516;-47
2022/04/01 12:53:17;;;;;;;3.77;3.27;;;7.20;88.90;;;;;;5107010;28;20639;-47
2022/04/01 12:56:17;;;;;;;3.13;2.53;;;7.30;88.70;;;;;;5108224;28;20512;-47
2022/04/01 12:59:02;;;;;;;8.30;3.63;;;7.40;88.40;;;;;;5107500;28;20434;-47
2022/04/01 13:02:02;;;;;;;3.57;3.27;;;7.50;88.20;;;;;;5107247;28;20406;-47
2022/04/01 13:04:29;;;;;;;4.07;2.67;;;7.70;88.10;;;;;;5109156;28;20515;-47
2022/04/01 13:07:22;;;;;;;3.40;3.10;;;7.80;87.80;;;;;;5107082;28;20752;-47
2022/04/01 13:10:09;;;;;;;3.83;3.53;;;7.80;87.20;;;;;;5106739;28;20726;-47
2022/04/01 13:12:57;;;;;;;4.50;4.20;;;7.90;86.90;;;;;;5107791;28;20689;-47
2022/04/01 13:15:48;;;;;;;3.53;3.20;;;8.00;86.60;;;;;;5107860;28;20409;-47
2022/04/01 13:18:39;;;;;;;3.50;3.20;;;8.00;86.20;;;;;;5107883;28;20414;-46
2022/04/01 13:21:32;;;;;;;3.60;3.23;;;8.20;86.30;;;;;;5107743;28;20411;-47
2022/04/01 13:24:27;;;;;;;3.50;3.20;;;8.30;86.10;;;;;;5109336;28;20462;-47
2022/04/01 13:27:12;;;;;;;3.70;3.40;;;8.40;85.50;;;;;;5075917;28;20459;-47
2022/04/01 13:30:04;;;;;;;3.30;3.10;;;8.50;85.10;;;;;;5107742;28;20468;-47
2022/04/01 13:32:56;;;;;;;3.60;3.30;;;8.50;85.00;;;;;;5106347;28;20573;-47
2022/04/01 13:35:47;;;;;;;3.77;3.47;;;8.60;84.90;;;;;;5097273;28;20466;-47
2022/04/01 13:38:42;;;;;;;3.20;2.90;;;8.60;84.50;;;;;;5105615;28;20498;-47
2022/04/01 13:41:25;;;;;;;4.17;3.87;;;8.50;84.10;;;;;;5063693;28;20629;-47
2022/04/01 13:44:14;;;;;;;10.30;7.50;;;8.50;83.90;;;;;;5068071;28;20461;-47
2022/04/01 13:47:14;;;;;;;9.20;6.90;;;8.40;84.00;;;;;;5069149;28;20769;-47
2022/04/01 13:50:00;;;;;;;6.33;5.50;;;8.30;84.30;;;;;;5070061;28;20745;-47
2022/04/01 13:52:39;;;;;;;5.07;4.57;;;8.20;84.30;;;;;;5068382;28;20427;-47
2022/04/01 13:55:32;;;;;;;3.77;3.47;;;8.10;84.20;;;;;;5071458;28;20403;-47
2022/04/01 13:58:19;;;;;;;4.00;3.60;;;8.00;84.40;;;;;;5065873;28;20431;-47
2022/04/01 14:01:16;;;;;;;3.70;3.30;;;7.90;84.50;;;;;;5071458;28;20400;-47
2022/04/01 14:04:06;;;;;;;3.60;3.30;;;7.80;84.60;;;;;;5068620;28;20439;-47
2022/04/01 14:06:55;;;;;;;4.40;4.00;;;7.80;84.60;;;;;;5067200;28;20530;-47
2022/04/01 14:09:51;;;;;;;4.57;4.27;;;7.80;84.80;;;;;;5068662;28;20651;-47
2022/04/01 14:12:39;;;;;;;4.10;3.80;;;7.80;84.60;;;;;;5048982;28;20428;-47
2022/04/01 14:15:37;;;;;;;4.13;3.83;;;7.80;84.50;;;;;;5050406;28;20504;-47
2022/04/01 14:18:23;;;;;;;4.20;3.80;;;7.90;84.60;;;;;;5064777;28;20662;-47
2022/04/01 14:21:15;;;;;;;5.13;4.73;;;7.90;84.30;;;;;;5050269;28;20509;-47
2022/04/01 14:24:08;;;;;;;4.20;3.87;;;7.90;84.30;;;;;;5052687;28;20452;-47
2022/04/01 14:26:54;;;;;;;3.73;3.43;;;7.90;84.10;;;;;;5051866;28;20707;-47
2022/04/01 14:33:04;;;;;;;3.90;3.60;;;7.80;83.70;;;;;;5052591;28;20416;-47
2022/04/01 14:35:42;;;;;;;4.20;3.80;;;7.70;83.70;;;;;;5059162;28;20539;-47
2022/04/01 14:38:28;;;;;;;4.50;4.10;;;7.60;83.70;;;;;;5052847;28;20413;-47
2022/04/01 14:41:19;;;;;;;4.77;4.37;;;7.60;84.00;;;;;;5090090;28;20543;-47
2022/04/01 14:44:08;;;;;;;5.20;4.80;;;7.60;83.80;;;;;;5091233;28;20426;-47
2022/04/01 14:47:01;;;;;;;4.53;4.17;;;7.60;83.70;;;;;;5093484;28;20422;-47